Time;durP1;ratioP1;P1;durP2;ratioP2;P2;SDS_P1;SDS_P2;PMS_P1;PMS_P2;Temp;Humidity;BMP_temperature;BMP_pressure;BME280_temperature;BME280_humidity;BME280_pressure;Samples;Min_cycle;Max_cycle;Signal;HPM_P1;HPM_P2
2022/04/17 00:00:32;;;;;;;13.35;11.38;;;11.20;63.40;;;;;;4885993;29;20644;-82
2022/04/17 00:03:00;;;;;;;16.08;12.75;;;11.20;63.50;;;;;;4884170;29;20108;-82
2022/04/17 00:05:28;;;;;;;13.43;11.50;;;11.20;63.60;;;;;;4881564;29;20112;-82
2022/04/17 00:07:55;;;;;;;15.88;12.10;;;11.10;63.70;;;;;;4883682;29;20105;-82
2022/04/17 00:10:22;;;;;;;16.08;11.80;;;11.10;63.70;;;;;;4885902;29;20057;-82
2022/04/17 00:12:49;;;;;;;17.15;12.57;;;11.00;63.80;;;;;;4885725;29;20511;-82
2022/04/17 00:15:15;;;;;;;14.68;11.88;;;11.00;63.80;;;;;;4885945;29;20049;-83
2022/04/17 00:17:42;;;;;;;13.25;11.73;;;10.90;63.90;;;;;;4881762;29;20049;-82
2022/04/17 00:20:15;;;;;;;16.67;12.00;;;10.90;64.00;;;;;;4893096;29;20188;-83
2022/04/17 00:22:42;;;;;;;13.82;11.82;;;10.90;64.10;;;;;;4884980;29;20053;-82
2022/04/17 00:25:11;;;;;;;15.85;12.10;;;10.80;64.10;;;;;;4885773;29;20052;-82
2022/04/17 00:27:40;;;;;;;12.85;11.18;;;10.80;64.20;;;;;;4885753;29;20045;-82
2022/04/17 00:30:09;;;;;;;13.13;11.40;;;10.70;64.30;;;;;;4884981;29;20056;-82
2022/04/17 00:32:36;;;;;;;13.73;11.32;;;10.70;64.40;;;;;;4881308;29;20056;-82
2022/04/17 00:35:04;;;;;;;13.55;12.00;;;10.60;64.40;;;;;;4882799;29;20124;-82
2022/04/17 00:37:31;;;;;;;15.02;11.75;;;10.60;64.50;;;;;;4885280;29;20056;-82
2022/04/17 00:39:58;;;;;;;14.43;11.43;;;10.50;64.50;;;;;;4885634;29;20064;-82
2022/04/17 00:42:26;;;;;;;14.38;11.30;;;10.50;64.60;;;;;;4884459;29;20052;-82
2022/04/17 00:44:52;;;;;;;16.70;12.35;;;10.40;64.60;;;;;;4882834;29;20617;-82
2022/04/17 00:47:20;;;;;;;15.85;12.35;;;10.40;64.70;;;;;;4881150;29;20184;-82
2022/04/17 00:49:47;;;;;;;13.18;11.75;;;10.40;64.80;;;;;;4888082;29;20053;-82
2022/04/17 00:52:14;;;;;;;13.30;11.82;;;10.40;64.80;;;;;;4888510;29;20059;-82
2022/04/17 00:54:46;;;;;;;15.35;12.82;;;10.30;64.90;;;;;;4888886;29;20053;-82
2022/04/17 00:57:17;;;;;;;13.95;12.25;;;10.30;64.90;;;;;;4888659;29;20048;-83
2022/04/17 00:59:46;;;;;;;13.18;11.80;;;10.20;65.00;;;;;;4884870;29;20049;-82
2022/04/17 01:02:14;;;;;;;14.05;11.88;;;10.10;65.00;;;;;;4884794;29;20136;-82
2022/04/17 01:04:42;;;;;;;14.93;12.55;;;10.10;65.10;;;;;;4888198;29;20495;-82
2022/04/17 01:07:10;;;;;;;14.25;12.75;;;10.10;65.10;;;;;;4888222;29;20526;-82
2022/04/17 01:09:38;;;;;;;15.27;12.80;;;10.00;65.20;;;;;;4888653;29;20083;-82
2022/04/17 01:12:10;;;;;;;13.65;11.90;;;10.00;65.20;;;;;;4887230;29;20048;-82
2022/04/17 01:14:39;;;;;;;13.73;12.25;;;9.90;65.30;;;;;;4884209;29;20521;-82
2022/04/17 01:17:07;;;;;;;14.38;12.00;;;9.90;65.40;;;;;;4885450;29;20133;-82
2022/04/17 01:19:39;;;;;;;19.10;12.88;;;9.90;65.40;;;;;;4888401;29;20053;-82
2022/04/17 01:22:09;;;;;;;15.82;12.85;;;9.90;65.50;;;;;;4888077;29;20443;-82
2022/04/17 01:27:22;;;;;;;17.38;13.70;;;9.70;65.60;;;;;;4888530;29;20048;-82
2022/04/17 01:29:50;;;;;;;17.02;14.02;;;9.70;65.60;;;;;;4885202;29;20063;-82
2022/04/17 01:32:18;;;;;;;16.73;14.07;;;9.60;65.70;;;;;;4882963;29;20108;-82
2022/04/17 01:34:45;;;;;;;15.93;13.40;;;9.50;65.70;;;;;;4898173;29;20116;-82
2022/04/17 01:37:13;;;;;;;14.85;12.52;;;9.50;65.80;;;;;;4891352;29;20510;-82
2022/04/17 01:39:40;;;;;;;15.30;13.25;;;9.50;65.80;;;;;;4888107;29;20057;-82
2022/04/17 01:42:07;;;;;;;14.25;11.93;;;9.50;65.80;;;;;;4887394;29;20455;-82
2022/04/17 01:44:34;;;;;;;13.60;11.98;;;9.40;65.90;;;;;;4883492;29;20060;-82
2022/04/17 01:47:02;;;;;;;16.95;12.35;;;9.40;65.90;;;;;;4885458;29;20052;-82
2022/04/17 01:49:30;;;;;;;15.40;12.57;;;9.40;65.90;;;;;;4887699;29;20517;-82
2022/04/17 01:51:57;;;;;;;13.45;12.05;;;9.30;65.90;;;;;;4886767;29;20049;-82
2022/04/17 01:54:25;;;;;;;14.85;12.60;;;9.30;65.90;;;;;;4887823;29;20063;-82
2022/04/17 01:56:52;;;;;;;15.07;12.65;;;9.20;65.90;;;;;;4884835;29;20518;-82
2022/04/17 01:59:21;;;;;;;14.70;11.60;;;9.20;65.90;;;;;;4882694;29;20053;-81
2022/04/17 02:01:48;;;;;;;14.00;12.48;;;9.10;65.90;;;;;;4886612;29;20068;-82
2022/04/17 02:04:17;;;;;;;15.48;12.38;;;9.10;65.90;;;;;;4887417;29;20545;-81
2022/04/17 02:06:44;;;;;;;13.63;11.73;;;9.10;65.90;;;;;;4887742;29;20143;-81
2022/04/17 02:09:13;;;;;;;14.52;12.15;;;9.00;66.00;;;;;;4886953;29;20052;-81
2022/04/17 02:11:42;;;;;;;14.20;12.40;;;9.00;66.00;;;;;;4883148;29;20048;-82
2022/04/17 02:14:10;;;;;;;14.25;12.60;;;8.90;66.00;;;;;;4894735;29;20088;-82
2022/04/17 02:16:37;;;;;;;15.02;13.07;;;8.90;66.00;;;;;;4887500;29;20060;-82
2022/04/17 02:19:04;;;;;;;14.30;12.77;;;8.90;66.00;;;;;;4886921;29;20518;-82
2022/04/17 02:21:31;;;;;;;14.10;12.60;;;8.80;66.00;;;;;;4887415;29;20044;-82
2022/04/17 02:24:02;;;;;;;15.65;12.13;;;8.80;66.10;;;;;;4885253;29;20120;-82
2022/04/17 02:26:30;;;;;;;13.73;11.82;;;8.70;66.10;;;;;;4882925;29;20060;-82
2022/04/17 02:28:58;;;;;;;16.05;12.68;;;8.70;66.20;;;;;;4885159;29;20089;-82
2022/04/17 02:31:26;;;;;;;15.20;12.68;;;8.70;66.20;;;;;;4887253;29;20122;-82
2022/04/17 02:33:53;;;;;;;13.40;11.77;;;8.60;66.30;;;;;;4886744;29;20128;-81
2022/04/17 02:36:21;;;;;;;15.52;12.25;;;8.50;66.30;;;;;;4887214;29;20045;-82
2022/04/17 02:38:48;;;;;;;14.68;12.25;;;8.60;66.40;;;;;;4883544;29;20056;-82
2022/04/17 02:41:15;;;;;;;15.27;12.23;;;8.50;66.40;;;;;;4882978;29;20068;-82
2022/04/17 02:43:42;;;;;;;15.70;12.63;;;8.50;66.50;;;;;;4886531;29;20053;-82
2022/04/17 02:46:09;;;;;;;14.90;12.88;;;8.40;66.50;;;;;;4885726;29;20057;-81
2022/04/17 02:48:36;;;;;;;15.13;12.70;;;8.40;66.60;;;;;;4886357;29;20538;-81
2022/04/17 02:51:03;;;;;;;15.52;12.93;;;8.40;66.60;;;;;;4885378;29;20052;-82
2022/04/17 02:53:33;;;;;;;14.20;12.30;;;8.40;66.60;;;;;;4882476;29;20059;-81
2022/04/17 02:56:00;;;;;;;14.63;11.82;;;8.40;66.60;;;;;;4884516;29;20080;-81
2022/04/17 02:58:28;;;;;;;16.00;13.25;;;8.30;66.70;;;;;;4886628;29;20049;-81
2022/04/17 03:06:26;;;;;;;17.15;12.40;;;8.20;66.70;;;;;;4886826;29;20052;-81
2022/04/17 03:08:53;;;;;;;15.25;12.70;;;8.20;66.70;;;;;;4882633;29;20063;-82
2022/04/17 03:11:20;;;;;;;14.30;11.90;;;8.20;66.70;;;;;;4882052;29;20048;-82
2022/04/17 03:13:48;;;;;;;14.88;11.95;;;8.10;66.70;;;;;;4885495;29;20057;-81
2022/04/17 03:16:15;;;;;;;13.98;11.93;;;8.10;66.70;;;;;;4886195;29;20139;-82
2022/04/17 03:18:43;;;;;;;14.98;12.98;;;8.00;66.70;;;;;;4886310;29;20053;-82
2022/04/17 03:21:10;;;;;;;12.90;11.60;;;8.00;66.80;;;;;;4885776;29;20057;-82
2022/04/17 03:23:37;;;;;;;13.52;11.80;;;8.00;66.80;;;;;;4882053;29;20040;-81
2022/04/17 03:26:04;;;;;;;15.40;13.25;;;7.90;66.80;;;;;;4883555;29;20387;-82
2022/04/17 03:28:31;;;;;;;13.27;11.55;;;7.90;66.80;;;;;;4886194;29;20049;-82
2022/04/17 03:30:58;;;;;;;15.00;11.55;;;7.90;66.80;;;;;;4885852;29;20467;-82
2022/04/17 03:33:27;;;;;;;13.45;12.05;;;7.90;66.80;;;;;;4886286;29;20513;-81
2022/04/17 03:35:55;;;;;;;13.63;11.45;;;7.90;66.80;;;;;;4883648;29;20525;-82
2022/04/17 03:38:22;;;;;;;12.43;11.13;;;7.80;66.80;;;;;;4881795;29;20045;-81
2022/04/17 03:40:49;;;;;;;15.13;12.50;;;7.80;66.90;;;;;;4885104;29;20112;-81
2022/04/17 03:43:16;;;;;;;13.50;11.60;;;7.70;66.90;;;;;;4885966;29;20053;-81
2022/04/17 03:45:47;;;;;;;14.35;12.10;;;7.70;66.90;;;;;;4885727;29;20057;-82
2022/04/17 03:48:17;;;;;;;14.40;11.98;;;7.70;66.90;;;;;;4885937;29;20109;-81
2022/04/17 03:50:44;;;;;;;14.85;11.93;;;7.60;66.90;;;;;;4882192;29;20494;-81
2022/04/17 03:53:11;;;;;;;12.85;11.52;;;7.60;66.90;;;;;;4882605;29;20049;-82
2022/04/17 03:55:39;;;;;;;15.15;11.63;;;7.60;66.90;;;;;;4896761;29;20060;-81
2022/04/17 03:58:06;;;;;;;14.07;12.07;;;7.60;66.90;;;;;;4889982;29;20093;-82
2022/04/17 04:00:32;;;;;;;13.13;11.52;;;7.50;66.90;;;;;;4885602;29;20074;-82
2022/04/17 04:03:03;;;;;;;15.02;12.13;;;7.40;66.90;;;;;;4884388;29;20048;-81
2022/04/17 04:05:31;;;;;;;13.45;11.77;;;7.40;66.90;;;;;;4881426;29;20065;-81
2022/04/17 04:07:58;;;;;;;13.73;11.65;;;7.40;67.00;;;;;;4883767;29;20484;-81
2022/04/17 04:10:25;;;;;;;13.43;11.98;;;7.40;67.00;;;;;;4884691;29;20135;-82
2022/04/17 04:12:52;;;;;;;13.80;11.85;;;7.30;67.10;;;;;;4885749;29;20076;-82
2022/04/17 04:15:20;;;;;;;11.95;10.38;;;7.30;67.10;;;;;;4885698;29;20057;-81
2022/04/17 04:17:46;;;;;;;14.90;11.75;;;7.30;67.10;;;;;;4882373;29;20045;-81
2022/04/17 04:20:13;;;;;;;15.07;11.73;;;7.20;67.10;;;;;;4881657;29;20041;-81
2022/04/17 04:22:40;;;;;;;15.32;12.23;;;7.20;67.10;;;;;;4885419;29;20049;-81
2022/04/17 04:25:08;;;;;;;14.30;11.35;;;7.20;67.10;;;;;;4889409;29;20056;-82
2022/04/17 04:30:21;;;;;;;13.73;11.77;;;7.10;67.10;;;;;;4889023;29;20056;-82
2022/04/17 04:32:56;;;;;;;13.93;11.13;;;7.00;67.10;;;;;;4885737;29;20466;-82
2022/04/17 04:35:26;;;;;;;13.75;11.32;;;7.10;67.10;;;;;;4884945;29;20406;-81
2022/04/17 04:37:53;;;;;;;13.68;11.38;;;7.00;67.20;;;;;;4885755;29;20064;-82
2022/04/17 04:40:20;;;;;;;12.80;11.10;;;7.00;67.20;;;;;;4889105;29;20105;-81
2022/04/17 04:42:48;;;;;;;13.10;11.02;;;6.90;67.20;;;;;;4889350;29;20045;-81
2022/04/17 04:48:00;;;;;;;12.20;10.60;;;6.90;67.30;;;;;;4887209;29;20053;-82
2022/04/17 04:50:27;;;;;;;12.73;10.82;;;6.90;67.30;;;;;;4884696;29;20060;-82
2022/04/17 04:52:54;;;;;;;14.18;10.93;;;6.90;67.30;;;;;;4885624;29;20053;-82
2022/04/17 04:55:21;;;;;;;15.65;11.52;;;6.80;67.30;;;;;;4888926;29;20117;-82
2022/04/17 04:57:48;;;;;;;12.43;10.75;;;6.80;67.40;;;;;;4888389;29;20097;-82
2022/04/17 05:00:15;;;;;;;12.93;10.20;;;6.80;67.40;;;;;;4888677;29;20049;-83
2022/04/17 05:02:42;;;;;;;12.23;10.30;;;6.70;67.40;;;;;;4884528;29;20422;-83
2022/04/17 05:05:09;;;;;;;12.55;10.73;;;6.70;67.40;;;;;;4895911;29;20060;-82
2022/04/17 05:07:37;;;;;;;14.82;10.63;;;6.70;67.40;;;;;;4888780;29;20060;-82
2022/04/17 05:10:06;;;;;;;11.68;10.05;;;6.70;67.40;;;;;;4888619;29;20537;-81
2022/04/17 05:12:34;;;;;;;12.98;10.60;;;6.60;67.40;;;;;;4888203;29;20053;-82
2022/04/17 05:15:01;;;;;;;12.57;10.50;;;6.60;67.50;;;;;;4886778;29;20116;-82
2022/04/17 05:17:28;;;;;;;11.55;10.00;;;6.50;67.50;;;;;;4884196;29;20136;-82
2022/04/17 05:19:55;;;;;;;12.75;10.55;;;6.50;67.50;;;;;;4886889;29;20422;-83
2022/04/17 05:22:31;;;;;;;13.38;10.75;;;6.50;67.50;;;;;;4888459;29;20113;-83
2022/04/17 05:24:58;;;;;;;12.63;10.23;;;6.50;67.50;;;;;;4888208;29;20475;-82
2022/04/17 05:27:27;;;;;;;14.18;10.70;;;6.40;67.60;;;;;;4886842;29;20117;-82
2022/04/17 05:29:54;;;;;;;12.23;10.20;;;6.40;67.60;;;;;;4885725;29;20066;-83
2022/04/17 05:32:21;;;;;;;12.85;10.48;;;6.40;67.60;;;;;;4883921;29;20463;-83
2022/04/17 05:34:47;;;;;;;12.70;10.70;;;6.40;67.70;;;;;;4887317;29;20053;-82
2022/04/17 05:37:15;;;;;;;11.85;10.20;;;6.40;67.70;;;;;;4888168;29;20045;-81
2022/04/17 05:39:42;;;;;;;11.65;9.82;;;6.40;67.70;;;;;;4888037;29;20101;-81
2022/04/17 05:42:10;;;;;;;13.40;10.60;;;6.40;67.70;;;;;;4887151;29;20510;-81
2022/04/17 05:44:43;;;;;;;12.75;10.88;;;6.40;67.80;;;;;;4883798;29;20135;-82
2022/04/17 05:47:11;;;;;;;13.18;10.77;;;6.30;67.80;;;;;;4895324;29;20399;-81
2022/04/17 05:49:37;;;;;;;11.50;9.35;;;6.40;67.80;;;;;;4888013;29;20049;-82
2022/04/17 05:52:05;;;;;;;11.10;9.00;;;6.30;67.90;;;;;;4887877;29;20101;-82
2022/04/17 05:54:32;;;;;;;12.57;10.32;;;6.30;67.90;;;;;;4887892;29;20052;-82
2022/04/17 05:57:00;;;;;;;11.98;9.80;;;6.30;68.00;;;;;;4885370;29;20054;-81
2022/04/17 05:59:27;;;;;;;13.73;9.70;;;6.30;68.00;;;;;;4883642;29;20172;-81
2022/04/17 06:01:54;;;;;;;11.55;9.63;;;6.30;68.10;;;;;;4884305;29;20120;-82
2022/04/17 06:04:21;;;;;;;12.30;9.90;;;6.30;68.10;;;;;;4892825;29;20522;-82
2022/04/17 06:06:47;;;;;;;13.63;9.80;;;6.30;68.20;;;;;;4895184;29;20494;-82
2022/04/17 06:09:14;;;;;;;12.98;10.15;;;6.30;68.30;;;;;;4894397;29;20044;-82
2022/04/17 06:11:41;;;;;;;11.80;9.85;;;6.30;68.30;;;;;;4887083;29;20049;-82
2022/04/17 06:14:08;;;;;;;11.57;9.35;;;6.30;68.40;;;;;;4898240;29;20052;-81
2022/04/17 06:16:35;;;;;;;11.63;9.48;;;6.40;68.50;;;;;;4894183;29;20068;-82
2022/04/17 06:19:02;;;;;;;11.63;9.45;;;6.40;68.50;;;;;;4894108;29;20053;-82
2022/04/17 06:21:29;;;;;;;11.90;9.80;;;6.40;68.60;;;;;;4901814;29;20525;-81
2022/04/17 06:23:56;;;;;;;13.88;9.75;;;6.40;68.70;;;;;;4894237;29;20056;-82
2022/04/17 06:26:23;;;;;;;11.80;9.75;;;6.40;68.80;;;;;;4896089;29;20056;-82
2022/04/17 06:28:50;;;;;;;11.55;9.32;;;6.40;68.90;;;;;;4895803;29;20045;-82
2022/04/17 06:31:17;;;;;;;11.13;9.23;;;6.50;68.90;;;;;;4894055;29;20064;-82
2022/04/17 06:33:43;;;;;;;11.18;8.32;;;6.50;69.00;;;;;;4896182;29;20124;-82
2022/04/17 06:36:10;;;;;;;12.77;8.70;;;6.60;69.10;;;;;;4894179;29;20044;-82
2022/04/17 06:38:37;;;;;;;10.43;8.10;;;6.60;69.20;;;;;;4894851;29;20045;-81
2022/04/17 06:41:04;;;;;;;11.10;8.70;;;6.70;69.20;;;;;;4896785;29;20112;-83
2022/04/17 06:43:31;;;;;;;11.82;9.05;;;6.70;69.20;;;;;;4893711;29;20083;-81
2022/04/17 06:45:58;;;;;;;12.55;8.57;;;6.80;69.20;;;;;;4893346;29;20052;-83
2022/04/17 06:48:25;;;;;;;10.00;8.55;;;6.90;69.20;;;;;;4893648;29;20108;-83
2022/04/17 06:50:53;;;;;;;12.10;8.40;;;6.90;69.20;;;;;;4893880;29;20049;-83
2022/04/17 06:53:21;;;;;;;8.80;7.65;;;7.00;69.20;;;;;;4895773;29;20048;-82
2022/04/17 06:55:48;;;;;;;9.07;7.35;;;7.10;69.20;;;;;;4895220;29;20052;-81
2022/04/17 06:58:18;;;;;;;9.43;7.55;;;7.20;69.10;;;;;;4895120;29;20474;-81
2022/04/17 07:00:46;;;;;;;8.95;7.72;;;7.20;69.10;;;;;;4893516;29;20108;-83
2022/04/17 07:03:16;;;;;;;9.10;7.20;;;7.30;69.00;;;;;;4893658;29;20048;-83
2022/04/17 07:05:43;;;;;;;9.60;7.50;;;7.40;69.00;;;;;;4879007;29;20052;-83
2022/04/17 07:08:10;;;;;;;9.65;7.30;;;7.40;68.90;;;;;;4900870;29;20103;-84
2022/04/17 07:10:39;;;;;;;9.45;7.03;;;7.50;68.90;;;;;;4894976;29;20060;-82
2022/04/17 07:13:07;;;;;;;9.35;6.57;;;7.60;68.80;;;;;;4891853;29;20429;-84
2022/04/17 07:15:35;;;;;;;9.18;7.22;;;7.70;68.80;;;;;;4893289;29;20053;-83
2022/04/17 07:18:02;;;;;;;9.32;7.10;;;7.80;68.70;;;;;;4893597;29;20146;-83
2022/04/17 07:20:30;;;;;;;8.13;6.47;;;7.90;68.70;;;;;;4894920;29;20399;-84
2022/04/17 07:22:59;;;;;;;9.13;6.93;;;7.90;68.70;;;;;;4894021;29;20112;-83
2022/04/17 07:25:27;;;;;;;8.65;6.20;;;8.00;68.70;;;;;;4894656;29;20060;-83
2022/04/17 07:27:55;;;;;;;9.23;6.35;;;8.10;68.60;;;;;;4894111;29;20060;-82
2022/04/17 07:30:26;;;;;;;8.98;5.93;;;8.10;68.60;;;;;;4893016;29;20063;-83
2022/04/17 07:32:55;;;;;;;7.95;5.80;;;8.20;68.40;;;;;;4894648;29;20079;-83
2022/04/17 07:35:24;;;;;;;8.05;5.88;;;8.30;68.30;;;;;;4895025;29;20057;-83
2022/04/17 07:37:51;;;;;;;8.98;5.53;;;8.40;68.20;;;;;;4894275;29;20429;-82
2022/04/17 07:40:25;;;;;;;8.15;5.50;;;8.50;68.00;;;;;;4893055;29;20063;-83
2022/04/17 07:42:55;;;;;;;7.28;5.75;;;8.50;67.90;;;;;;4893997;29;20048;-82
2022/04/17 07:45:23;;;;;;;7.03;5.00;;;8.60;67.90;;;;;;4895014;29;20120;-84
2022/04/17 07:47:50;;;;;;;10.32;5.40;;;8.70;67.70;;;;;;4892759;29;20502;-82
2022/04/17 07:50:23;;;;;;;9.15;5.20;;;8.80;67.50;;;;;;4895716;29;20109;-83
2022/04/17 07:52:51;;;;;;;8.00;5.05;;;8.90;67.20;;;;;;4895918;29;20104;-82
2022/04/17 07:55:18;;;;;;;5.80;4.10;;;8.90;66.80;;;;;;4892873;29;20410;-84
2022/04/17 08:00:44;;;;;;;6.05;3.92;;;9.10;66.20;;;;;;4895279;29;20049;-82
2022/04/17 08:03:35;;;;;;;7.60;4.07;;;9.30;65.90;;;;;;4896753;29;20055;-83
2022/04/17 08:06:05;;;;;;;7.05;4.65;;;9.40;65.70;;;;;;4888521;29;20053;-83
2022/04/17 08:08:33;;;;;;;6.80;4.65;;;9.40;65.40;;;;;;4898161;29;20049;-82
2022/04/17 08:11:00;;;;;;;6.65;4.13;;;9.60;65.20;;;;;;4898521;29;20101;-83
2022/04/17 08:13:27;;;;;;;5.75;3.83;;;9.70;64.90;;;;;;4897087;29;20120;-83
2022/04/17 08:15:54;;;;;;;6.25;3.75;;;9.80;64.60;;;;;;4903656;29;20059;-83
2022/04/17 08:18:21;;;;;;;6.03;3.88;;;9.90;64.30;;;;;;4898123;29;20049;-83
2022/04/17 08:20:49;;;;;;;6.18;3.78;;;10.00;64.10;;;;;;4896355;29;20061;-81
2022/04/17 08:23:16;;;;;;;5.90;3.80;;;10.10;63.80;;;;;;4899747;29;20593;-82
2022/04/17 08:25:43;;;;;;;9.25;4.47;;;10.20;63.60;;;;;;4896626;29;20653;-83
2022/04/17 08:28:10;;;;;;;8.07;3.85;;;10.40;63.30;;;;;;4898155;29;20124;-82
2022/04/17 08:30:37;;;;;;;6.25;3.90;;;10.40;62.90;;;;;;4896261;29;20049;-84
2022/04/17 08:33:07;;;;;;;7.22;3.72;;;10.50;62.50;;;;;;4896376;29;20052;-83
2022/04/17 08:35:34;;;;;;;5.80;3.60;;;10.60;62.20;;;;;;4903570;29;20758;-83
2022/04/17 08:38:05;;;;;;;11.30;4.30;;;10.80;61.90;;;;;;4900113;29;20554;-84
2022/04/17 08:40:33;;;;;;;5.53;3.05;;;10.90;61.70;;;;;;4896065;29;20072;-83
2022/04/17 08:43:01;;;;;;;5.82;3.38;;;11.00;61.30;;;;;;4896282;29;20072;-84
2022/04/17 08:45:28;;;;;;;9.13;3.22;;;11.10;61.00;;;;;;4896280;29;20089;-84
2022/04/17 08:47:56;;;;;;;5.63;3.67;;;11.30;60.70;;;;;;4895900;29;20041;-83
2022/04/17 08:50:23;;;;;;;7.13;3.75;;;11.40;60.50;;;;;;4897922;29;20052;-83
2022/04/17 08:52:53;;;;;;;5.32;3.25;;;11.40;60.20;;;;;;4897607;29;20059;-83
2022/04/17 08:55:20;;;;;;;8.05;3.75;;;11.60;59.90;;;;;;4895709;29;20055;-83
2022/04/17 08:57:47;;;;;;;6.03;3.50;;;11.70;59.60;;;;;;4897115;29;20542;-83
2022/04/17 09:00:20;;;;;;;6.05;3.45;;;11.80;59.10;;;;;;4895757;29;20052;-81
2022/04/17 09:02:48;;;;;;;5.07;3.05;;;11.90;58.80;;;;;;4897465;29;20049;-82
2022/04/17 09:05:18;;;;;;;6.13;3.17;;;12.00;58.50;;;;;;4898683;29;20056;-82
2022/04/17 09:07:51;;;;;;;7.38;3.70;;;12.20;58.30;;;;;;4896005;29;20108;-82
2022/04/17 09:10:29;;;;;;;4.82;2.78;;;12.30;58.00;;;;;;4896699;29;20442;-82
2022/04/17 09:12:59;;;;;;;8.48;3.10;;;12.40;57.70;;;;;;4895425;29;20056;-81
2022/04/17 09:15:33;;;;;;;5.40;3.28;;;12.50;57.30;;;;;;4896989;29;20068;-83
2022/04/17 09:18:00;;;;;;;6.65;3.10;;;12.60;56.90;;;;;;4895704;29;20064;-83
2022/04/17 09:20:28;;;;;;;5.18;2.83;;;12.70;56.50;;;;;;4897498;29;20059;-83
2022/04/17 09:22:58;;;;;;;6.18;3.03;;;12.80;56.10;;;;;;4908660;29;20097;-83
2022/04/17 09:25:26;;;;;;;6.78;2.92;;;12.90;55.80;;;;;;4893638;29;20060;-82
2022/04/17 09:27:56;;;;;;;4.93;2.85;;;13.00;55.50;;;;;;4895231;29;20526;-82
2022/04/17 09:30:28;;;;;;;4.57;2.65;;;13.20;55.20;;;;;;4895184;29;20562;-83
2022/04/17 09:32:56;;;;;;;8.90;2.90;;;13.30;54.90;;;;;;4895109;29;20049;-82
2022/04/17 09:35:26;;;;;;;5.43;2.88;;;13.40;54.60;;;;;;4896922;29;20483;-81
2022/04/17 09:38:02;;;;;;;6.60;2.90;;;13.50;54.20;;;;;;4896594;29;20529;-81
2022/04/17 09:40:31;;;;;;;6.47;3.17;;;13.60;53.70;;;;;;4894951;29;20049;-82
2022/04/17 09:43:15;;;;;;;6.22;2.80;;;13.70;53.20;;;;;;4893703;29;20060;-82
2022/04/17 09:46:04;;;;;;;6.40;2.50;;;13.80;52.80;;;;;;4896070;29;20484;-82
2022/04/17 09:48:36;;;;;;;8.10;2.70;;;13.90;52.50;;;;;;4895627;29;20052;-81
2022/04/17 09:51:23;;;;;;;4.60;2.47;;;14.00;52.30;;;;;;4894720;29;20104;-82
2022/04/17 09:54:06;;;;;;;4.85;2.25;;;14.10;52.10;;;;;;4881054;29;20101;-81
2022/04/17 09:56:35;;;;;;;3.65;2.00;;;14.20;51.80;;;;;;4895999;29;20055;-82
2022/04/17 09:59:16;;;;;;;5.47;2.70;;;14.30;51.50;;;;;;4897559;29;20482;-83
2022/04/17 10:01:57;;;;;;;5.90;2.42;;;14.40;51.10;;;;;;4896814;29;20056;-82
2022/04/17 10:04:26;;;;;;;5.53;2.20;;;14.40;50.80;;;;;;4894413;29;20104;-81
2022/04/17 10:06:59;;;;;;;6.28;2.50;;;14.50;50.60;;;;;;4894655;29;20063;-81
2022/04/17 10:09:26;;;;;;;4.63;2.40;;;14.60;50.40;;;;;;4894613;29;20048;-81
2022/04/17 10:11:56;;;;;;;5.45;2.17;;;14.70;50.10;;;;;;4896227;29;20056;-80
2022/04/17 10:14:24;;;;;;;4.28;2.33;;;14.80;49.80;;;;;;4897252;29;20048;-81
2022/04/17 10:16:54;;;;;;;7.80;2.42;;;14.90;49.60;;;;;;4895915;29;20104;-80
2022/04/17 10:19:21;;;;;;;4.28;2.50;;;14.90;49.30;;;;;;4893894;29;20433;-80
2022/04/17 10:21:49;;;;;;;3.92;2.05;;;15.00;49.10;;;;;;4893605;29;20048;-81
2022/04/17 10:24:18;;;;;;;7.63;2.40;;;15.20;48.90;;;;;;4894442;29;20040;-81
2022/04/17 10:26:48;;;;;;;4.68;2.35;;;15.30;48.70;;;;;;4880165;29;20057;-81
2022/04/17 10:29:33;;;;;;;3.80;2.05;;;15.30;48.50;;;;;;4897766;29;20509;-81
2022/04/17 10:32:38;;;;;;;4.32;2.33;;;15.40;48.20;;;;;;4896569;29;20049;-82
2022/04/17 10:35:39;;;;;;;4.03;2.17;;;15.50;47.90;;;;;;4897581;29;20078;-82
2022/04/17 10:38:41;;;;;;;3.88;2.42;;;15.60;47.80;;;;;;4897773;29;20056;-83
2022/04/17 10:41:12;;;;;;;4.28;2.22;;;15.70;47.50;;;;;;4897825;29;20052;-82
2022/04/17 10:43:48;;;;;;;3.92;2.25;;;15.80;47.30;;;;;;4895951;29;20057;-82
2022/04/17 10:46:19;;;;;;;5.53;2.40;;;15.90;47.00;;;;;;4893694;29;20056;-82
2022/04/17 10:48:48;;;;;;;5.20;2.40;;;15.90;46.80;;;;;;4895393;29;20044;-82
2022/04/17 10:51:25;;;;;;;5.65;2.22;;;15.90;46.70;;;;;;4894040;29;20053;-81
2022/04/17 10:54:03;;;;;;;4.10;2.20;;;16.10;46.60;;;;;;4880407;29;20049;-81
2022/04/17 10:56:33;;;;;;;4.25;2.22;;;16.20;46.40;;;;;;4895892;29;20056;-82
2022/04/17 10:59:03;;;;;;;5.70;2.60;;;16.20;46.40;;;;;;4896584;29;20048;-82
2022/04/17 11:01:45;;;;;;;6.70;2.83;;;16.30;46.20;;;;;;4893472;29;20052;-81
2022/04/17 11:04:17;;;;;;;5.63;2.50;;;16.40;46.00;;;;;;4893700;29;20060;-81
2022/04/17 11:06:45;;;;;;;6.95;2.60;;;16.40;45.80;;;;;;4895181;29;20052;-80
2022/04/17 11:09:15;;;;;;;5.93;2.67;;;16.50;45.70;;;;;;4893870;29;20049;-81
2022/04/17 11:11:46;;;;;;;5.60;2.30;;;16.50;45.60;;;;;;4895399;29;20904;-81
2022/04/17 11:14:19;;;;;;;5.43;2.58;;;16.60;45.50;;;;;;4893791;29;20068;-81
2022/04/17 11:16:55;;;;;;;6.55;2.60;;;16.70;45.30;;;;;;4896441;29;20053;-82
2022/04/17 11:19:28;;;;;;;7.65;2.35;;;16.80;45.30;;;;;;4895045;29;20063;-81
2022/04/17 11:22:04;;;;;;;7.32;2.47;;;16.80;45.30;;;;;;4894859;29;20048;-81
2022/04/17 11:25:12;;;;;;;5.70;2.88;;;16.90;45.20;;;;;;4894755;29;20049;-82
2022/04/17 11:27:51;;;;;;;4.90;2.70;;;16.90;45.00;;;;;;4837903;29;20140;-82
2022/04/17 11:30:38;;;;;;;6.35;2.53;;;17.00;44.80;;;;;;4838301;29;20042;-82
2022/04/17 11:33:06;;;;;;;4.82;2.38;;;17.10;44.70;;;;;;4838055;29;20050;-82
2022/04/17 11:35:33;;;;;;;4.43;2.10;;;17.20;44.70;;;;;;4838457;29;20111;-81
2022/04/17 11:38:02;;;;;;;5.45;2.33;;;17.30;44.60;;;;;;4839409;29;20525;-81
2022/04/17 11:40:34;;;;;;;4.90;2.47;;;17.40;44.60;;;;;;4838134;29;20045;-82
2022/04/17 11:43:12;;;;;;;5.75;3.10;;;17.40;44.50;;;;;;4837399;29;20103;-82
2022/04/17 11:45:41;;;;;;;5.15;2.60;;;17.50;44.40;;;;;;4837709;29;20061;-81
2022/04/17 11:48:12;;;;;;;6.85;2.35;;;17.60;44.40;;;;;;4838140;29;20046;-81
2022/04/17 11:50:40;;;;;;;4.50;2.60;;;17.60;44.30;;;;;;4838155;29;20236;-82
2022/04/17 11:53:13;;;;;;;6.15;2.53;;;17.70;44.10;;;;;;4839120;29;20050;-83
2022/04/17 11:55:42;;;;;;;5.97;2.22;;;17.80;44.00;;;;;;4838290;29;20064;-85
2022/04/17 11:58:26;;;;;;;4.50;2.35;;;17.90;43.90;;;;;;4837502;29;20126;-83
2022/04/17 12:01:03;;;;;;;4.97;2.75;;;17.90;43.90;;;;;;4845564;29;20388;-83
2022/04/17 12:03:44;;;;;;;4.13;2.33;;;18.00;43.70;;;;;;4884289;29;20087;-84
2022/04/17 12:06:11;;;;;;;4.32;2.22;;;18.10;43.60;;;;;;4892964;29;20096;-84
2022/04/17 12:08:40;;;;;;;4.45;2.28;;;18.20;43.50;;;;;;4893809;29;20399;-84
2022/04/17 12:11:08;;;;;;;4.40;2.55;;;18.30;43.30;;;;;;4896472;29;20435;-84
2022/04/17 12:13:36;;;;;;;5.28;2.60;;;18.30;43.30;;;;;;4892389;29;20053;-83
2022/04/17 12:16:05;;;;;;;7.72;2.55;;;18.40;43.30;;;;;;4892947;29;20510;-84
2022/04/17 12:18:32;;;;;;;4.40;2.40;;;18.40;43.20;;;;;;4894261;29;20044;-83
2022/04/17 12:21:05;;;;;;;4.50;2.20;;;18.50;43.10;;;;;;4894340;29;20097;-82
2022/04/17 12:23:34;;;;;;;4.07;1.90;;;18.50;43.00;;;;;;4894325;29;20056;-82
2022/04/17 12:26:07;;;;;;;4.97;2.50;;;18.60;42.90;;;;;;4896535;29;20107;-83
2022/04/17 12:28:40;;;;;;;5.07;2.13;;;18.70;42.80;;;;;;4894329;29;20053;-83
2022/04/17 12:31:07;;;;;;;3.97;2.00;;;18.80;42.70;;;;;;4892530;29;20104;-82
2022/04/17 12:33:34;;;;;;;4.90;1.95;;;18.80;42.70;;;;;;4892395;29;20048;-82
2022/04/17 12:36:08;;;;;;;4.65;2.17;;;18.90;42.60;;;;;;4894311;29;20057;-82
2022/04/17 12:38:37;;;;;;;3.92;2.33;;;18.90;42.50;;;;;;4894299;29;24956;-83
2022/04/17 12:41:20;;;;;;;4.18;2.20;;;18.90;42.40;;;;;;4893768;29;20048;-83
2022/04/17 12:43:50;;;;;;;4.38;1.88;;;19.10;42.30;;;;;;4895776;29;20466;-83
2022/04/17 12:46:30;;;;;;;3.78;2.00;;;19.10;42.30;;;;;;4896104;29;20049;-83
2022/04/17 12:49:08;;;;;;;5.60;2.10;;;19.20;42.10;;;;;;4895934;29;20052;-83
2022/04/17 12:51:37;;;;;;;5.82;2.50;;;19.20;42.10;;;;;;4896176;29;20059;-83
2022/04/17 12:54:07;;;;;;;4.53;2.20;;;19.30;42.00;;;;;;4896236;29;20060;-82
2022/04/17 12:56:35;;;;;;;5.03;2.10;;;19.40;41.90;;;;;;4897055;29;20063;-82
2022/04/17 12:59:03;;;;;;;3.00;1.55;;;19.40;41.80;;;;;;4898601;29;20055;-82
2022/04/17 13:01:32;;;;;;;3.78;1.75;;;19.40;41.70;;;;;;4895849;29;20052;-81
2022/04/17 13:04:07;;;;;;;5.20;2.40;;;19.50;41.60;;;;;;4895872;29;20045;-82
2022/04/17 13:06:35;;;;;;;3.45;1.70;;;19.50;41.40;;;;;;4895664;29;20510;-82
2022/04/17 13:09:12;;;;;;;3.88;1.75;;;19.60;41.30;;;;;;4895700;29;20502;-82
2022/04/17 13:11:46;;;;;;;4.40;1.83;;;19.60;41.30;;;;;;4896904;29;20522;-81